← DIVERSIFIED PROD LLC

Permit History (all operated wells)

Show:
5054 permits
SourcePermitAPITypeLeaseCountyIssuedFrom/To
66177642-439-33416DRILL820 MARTIN DEVELOPMENTTARRANT2008-06-05from: QUICKSILVER RESOURCES INC.
66200742-293-32136DRILLMILDRED THOMPSON GULIMESTONE2008-06-05from: DEVON ENERGY PRODUCTION CO, L.P.
66215342-217-30635DRILLWILLIAMS, LOWELLHILL2008-06-05from: QUICKSILVER RESOURCES INC.
66177642-439-33416DRILL820 MARTIN DEVELOPMENT UNITTARRANT2008-06-05from: QUICKSILVER RESOURCES INC.
66212342-161-34153DRILLWEST "B"FREESTONE2008-06-05from: ANADARKO PETROLEUM CORPORATION
66212942-217-30630DRILLLOWELL WILLIAMSHILL2008-06-05from: QUICKSILVER RESOURCES INC.
66214242-217-30631DRILLLOWELL WILLIAMSHILL2008-06-05from: QUICKSILVER RESOURCES INC.
66214642-217-30633DRILLLOWELL WILLIAMSHILL2008-06-05from: QUICKSILVER RESOURCES INC.
66214242-217-30631DRILLWILLIAMS, LOWELLHILL2008-06-05from: QUICKSILVER RESOURCES INC.
66216342-217-30636DRILLCROUCH UNITHILL2008-06-05from: EOG RESOURCES, INC.
66216342-217-30636DRILLCROUCH UNITHILL2008-06-05from: EOG RESOURCES, INC.
66202142-221-31663DRILLRODRIGO-JAKE O. KINNARD UNITHOOD2008-06-04from: QUICKSILVER RESOURCES INC.
66202342-221-31665DRILLMARY ANN UNITHOOD2008-06-04from: QUICKSILVER RESOURCES INC.
66202242-221-31666DRILLMARY ANN UNITHOOD2008-06-04from: QUICKSILVER RESOURCES INC.
66202542-221-31664DRILLRODRIGO-JAKE O. KINNARD UNITHOOD2008-06-04from: QUICKSILVER RESOURCES INC.
66201842-221-31662DRILLRODRIGO-JAKE O. KINNARD UNITHOOD2008-06-04from: QUICKSILVER RESOURCES INC.
66202742-425-30190DRILLBRANHAM KELLER UNITSOMERVELL2008-06-04from: QUICKSILVER RESOURCES INC.
66197642-401-34774DRILLBRADYRUSK2008-06-04from: SOJITZ ENERGY VENTURE, INC.
66207742-073-31360DRILLTEMPLE-EASTEX G.U. NO. 3CHEROKEE2008-05-30from: CORDILLERA TEXAS, L.P.
66175242-395-31456DRILLT-BAR-X/SORRELS GAS UNITROBERTSON2008-05-29from: BURLINGTON RESOURCES O & G CO LP
66169142-217-30624DRILLDUKEHILL2008-05-29from: FOREST OIL CORPORATION
66163542-217-30623DRILLTAYLOR FAMILY TRUSTHILL2008-05-29from: QUICKSILVER RESOURCES INC.
66169542-217-30625DRILLDUKEHILL2008-05-29from: FOREST OIL CORPORATION
66161042-203-34477DRILLBEATRICE KEY GAS UNITHARRISON2008-05-29from: FOREST OIL CORPORATION
66168242-161-34143DRILLOLAJUWON "A"FREESTONE2008-05-29from: ANADARKO PETROLEUM CORPORATION
66056042-161-34148DRILLWORTHY "A" UNITFREESTONE2008-05-28from: ANADARKO PETROLEUM CORPORATION
66156942-203-34474DRILLMEEK HAYNES UNITHARRISON2008-05-27from: O'BENCO, INC.
66147642-217-30620DRILLCOLDIRON UNITHILL2008-05-27from: EOG RESOURCES, INC.
66142442-217-30619DRILLELLISON UNITHILL2008-05-23from: EOG RESOURCES, INC.
66179142-073-31358DRILLWHITEMAN-DECKER GU NO. 1CHEROKEE2008-05-23from: CORDILLERA TEXAS, L.P.
66143042-203-34472DRILLT.J. TAYLORHARRISON2008-05-23from: FOREST OIL CORPORATION
66143042-203-34472DRILLT.J. TAYLORHARRISON2008-05-23from: FOREST OIL CORPORATION
66126442-203-34464DRILLGLADYS DAVIS UNITHARRISON2008-05-22from: FOREST OIL CORPORATION
66026142-395-31455DRILLSYBIL MARSHALL UNITROBERTSON2008-05-22from: ENCANA OIL & GAS(USA) INC.
65921342-183-32039DRILLGLADEWATER GAS UNIT 17GREGG2008-05-21from: EXCO PARTNERS OPERATING PTSHP LP
66088642-221-31641DRILLMARY ANN UNITHOOD2008-05-20from: QUICKSILVER RESOURCES INC.
66102942-365-37101DRILLMAUDE 2 UNITPANOLA2008-05-20from: CONOCOPHILLIPS COMPANY
66094742-217-30616DRILLMCDANIEL UNITHILL2008-05-20from: EOG RESOURCES, INC.
66094742-217-30616DRILLMCDANIEL UNITHILL2008-05-20from: EOG RESOURCES, INC.
66088542-221-31639DRILLMARY ANN UNITHOOD2008-05-20from: QUICKSILVER RESOURCES INC.
66066742-365-37097DRILLASHTON 2 UNITPANOLA2008-05-19from: CONOCOPHILLIPS COMPANY
66088742-221-31640DRILLPROFESSOR UNITHOOD2008-05-19from: QUICKSILVER RESOURCES INC.
66218442-395-31450DRILLBR STEGALL GAS UNITROBERTSON2008-05-19from: BURLINGTON RESOURCES O & G CO LP
66088942-221-31642DRILLPROFESSOR UNITHOOD2008-05-19from: QUICKSILVER RESOURCES INC.
66065542-217-30613DRILLLOU ELLEN UNITHILL2008-05-15from: EOG RESOURCES, INC.
66059842-395-31448DRILLBR 2-14 RANCHROBERTSON2008-05-14from: BURLINGTON RESOURCES O & G CO LP
64394042-439-32562DRILLBOSWELL UNITTARRANT2008-05-12from: QUICKSILVER RESOURCES INC.
66039542-217-30612DRILLBENTLEY UNITHILL2008-05-08from: EOG RESOURCES, INC.
66036542-217-30611DRILLMCKOWN UNITHILL2008-05-08from: EOG RESOURCES, INC.
66028842-251-32898DRILLJAMES B. MOONEY UNITJOHNSON2008-05-07from: QUICKSILVER RESOURCES INC.
page 24 of 102
Live © 2026 Petrora